This is the latest recevied weather packets stored in our database for station/object KF0FSA. If no packets are shown the sender has not sent any weather packets the latest 10 day(s).
| Time | Temp. | Humidity | Pressure | Rain* | Wind** | Luminosity | Snow |
|---|---|---|---|---|---|---|---|
| 1777753117 | 21.11° C | 28% | 961.2 hPa | 0 mm | - | 791 W/m² | - |
| 1777752817 | 20.56° C | 29% | 961.2 hPa | 0 mm | - | 799 W/m² | - |
| 1777752516 | 20.56° C | 30% | 961.2 hPa | 0 mm | - | 807 W/m² | - |
| 1777752215 | 20.56° C | 29% | 961.2 hPa | 0 mm | - | 838 W/m² | - |
| 1777751914 | 20.56° C | 28% | 961.4 hPa | 0 mm | - | 702 W/m² | - |
| 1777751610 | 21.11° C | 27% | 961.1 hPa | 0 mm | - | 883 W/m² | - |
| 1777751309 | 20.56° C | 29% | 961.3 hPa | 0 mm | - | 1031 W/m² | - |
| 1777751005 | 20.56° C | 30% | 961.5 hPa | 0 mm | - | 910 W/m² | - |
| 1777750705 | 20° C | 30% | 961.7 hPa | 0 mm | - | 717 W/m² | - |
| 1777750405 | 20° C | 30% | 961.7 hPa | 0 mm | - | 822 W/m² | - |
| 1777750229 | 20° C | 31% | 961.7 hPa | 0 mm | - | 873 W/m² | - |
| 1777749805 | 20.56° C | 31% | 961.9 hPa | 0 mm | - | 871 W/m² | - |
| 1777749518 | 20° C | 31% | 961.9 hPa | 0 mm | - | 868 W/m² | - |
| 1777749218 | 20° C | 30% | 962 hPa | 0 mm | - | 864 W/m² | - |
| 1777748906 | 20° C | 32% | 962.1 hPa | 0 mm | - | 858 W/m² | - |
| 1777748607 | 20° C | 32% | 962.2 hPa | 0 mm | - | 908 W/m² | - |
| 1777748306 | 20° C | 33% | 962.3 hPa | 0 mm | - | 904 W/m² | - |
| 1777748006 | 20° C | 31% | 962.3 hPa | 0 mm | - | 908 W/m² | - |
| 1777747706 | 20° C | 32% | 962.4 hPa | 0 mm | - | 900 W/m² | - |
| 1777747406 | 20° C | 31% | 962.5 hPa | 0 mm | - | 898 W/m² | - |
| 1777747227 | 19.44° C | 32% | 962.6 hPa | 0 mm | - | 870 W/m² | - |
| 1777746927 | 19.44° C | 32% | 962.7 hPa | 0 mm | - | 873 W/m² | - |
| 1777746503 | 19.44° C | 33% | 962.7 hPa | 0 mm | - | 820 W/m² | - |
| 1777746203 | 19.44° C | 32% | 962.8 hPa | 0 mm | - | 792 W/m² | - |
| 1777745903 | 19.44° C | 32% | 962.9 hPa | 0 mm | - | 888 W/m² | - |
* Rain latest hour (hover to see other rain measurements)
** Current wind speed in m/s (hover to see current wind gust speed)